Time;durP1;ratioP1;P1;durP2;ratioP2;P2;SDS_P1;SDS_P2;PMS_P1;PMS_P2;Temp;Humidity;BMP_temperature;BMP_pressure;BME280_temperature;BME280_humidity;BME280_pressure;Samples;Min_cycle;Max_cycle;Signal;HPM_P1;HPM_P2
2021/03/25 00:00:54;;;;;;;118.73;109.63;;;4.40;99.90;;;;;;5032952;28;20527;-83
2021/03/25 00:03:21;;;;;;;111.00;102.63;;;4.40;99.90;;;;;;5031463;28;20456;-83
2021/03/25 00:05:54;;;;;;;114.87;106.07;;;4.40;99.90;;;;;;5049936;28;20483;-83
2021/03/25 00:08:25;;;;;;;112.70;104.37;;;4.40;99.90;;;;;;5052938;28;20583;-82
2021/03/25 00:10:52;;;;;;;111.87;103.00;;;4.40;99.90;;;;;;5034688;28;20453;-82
2021/03/25 00:13:19;;;;;;;118.33;109.67;;;4.30;99.90;;;;;;5032503;28;20452;-83
2021/03/25 00:15:51;;;;;;;121.07;110.80;;;4.30;99.90;;;;;;5051131;28;20448;-83
2021/03/25 00:18:19;;;;;;;113.80;105.20;;;4.40;99.90;;;;;;5055123;28;20479;-82
2021/03/25 00:20:46;;;;;;;117.97;109.30;;;4.40;99.90;;;;;;5040280;28;20487;-82
2021/03/25 00:23:13;;;;;;;134.83;124.63;;;4.30;99.90;;;;;;5036175;28;20542;-82
2021/03/25 00:25:41;;;;;;;129.87;120.73;;;4.30;99.90;;;;;;5055731;28;21014;-82
2021/03/25 00:28:09;;;;;;;138.27;128.67;;;4.30;99.90;;;;;;5056183;28;20819;-82
2021/03/25 00:30:37;;;;;;;144.37;134.00;;;4.30;99.90;;;;;;5037088;28;20475;-82
2021/03/25 00:33:07;;;;;;;139.97;129.53;;;4.30;99.90;;;;;;5051480;28;20444;-83
2021/03/25 00:35:35;;;;;;;147.73;136.70;;;4.40;99.90;;;;;;5056195;28;20451;-82
2021/03/25 00:38:02;;;;;;;121.57;112.70;;;4.60;99.90;;;;;;5039769;28;20468;-82
2021/03/25 00:40:29;;;;;;;108.60;100.80;;;4.60;99.90;;;;;;5036250;28;20463;-83
2021/03/25 00:42:55;;;;;;;95.67;87.50;;;4.60;99.90;;;;;;5050212;28;20443;-83
2021/03/25 00:45:27;;;;;;;86.03;78.90;;;4.50;99.90;;;;;;5055704;28;21005;-82
2021/03/25 00:47:54;;;;;;;85.33;78.53;;;4.40;99.90;;;;;;5040798;28;20543;-83
2021/03/25 00:50:25;;;;;;;75.53;68.53;;;4.50;99.90;;;;;;5035886;28;20476;-82
2021/03/25 00:52:53;;;;;;;76.20;69.70;;;4.30;99.90;;;;;;5037079;28;20468;-83
2021/03/25 00:55:22;;;;;;;108.50;98.90;;;4.30;99.90;;;;;;5035711;28;21010;-83
2021/03/25 00:57:49;;;;;;;111.77;103.27;;;4.30;99.90;;;;;;5054569;28;20474;-83
2021/03/25 01:00:17;;;;;;;120.57;111.43;;;4.40;99.90;;;;;;5055674;28;20459;-83
2021/03/25 01:02:44;;;;;;;116.73;107.20;;;4.40;99.90;;;;;;5038477;28;20993;-83
2021/03/25 01:05:12;;;;;;;121.70;112.47;;;4.30;99.90;;;;;;5035473;28;21070;-82
2021/03/25 01:07:39;;;;;;;148.53;137.80;;;4.30;99.90;;;;;;5050181;28;20534;-83
2021/03/25 01:10:12;;;;;;;146.60;136.83;;;4.10;99.90;;;;;;5047217;28;20452;-83
2021/03/25 01:12:39;;;;;;;130.03;121.60;;;4.10;99.90;;;;;;5039014;28;20506;-82
2021/03/25 01:15:08;;;;;;;126.60;117.57;;;4.10;99.90;;;;;;5055317;28;21015;-83
2021/03/25 01:17:37;;;;;;;129.07;120.27;;;4.10;99.90;;;;;;5051145;28;20962;-83
2021/03/25 01:20:12;;;;;;;120.07;111.27;;;4.00;99.90;;;;;;5035286;28;20495;-83
2021/03/25 01:22:38;;;;;;;128.93;121.00;;;3.90;99.90;;;;;;5037454;28;20530;-82
2021/03/25 01:25:06;;;;;;;138.80;128.40;;;3.80;99.90;;;;;;5054961;28;20483;-82
2021/03/25 01:27:33;;;;;;;120.97;112.70;;;3.60;99.90;;;;;;5052627;28;20487;-83
2021/03/25 01:30:01;;;;;;;127.33;118.17;;;3.50;99.90;;;;;;5034946;28;20826;-82
2021/03/25 01:32:27;;;;;;;160.97;151.17;;;3.50;99.90;;;;;;5033666;28;20491;-82
2021/03/25 01:34:54;;;;;;;185.77;174.67;;;3.20;99.90;;;;;;5035024;28;20559;-82
2021/03/25 01:37:20;;;;;;;224.33;208.70;;;3.20;99.90;;;;;;5035127;28;20948;-83
2021/03/25 01:39:47;;;;;;;257.27;242.27;;;3.20;99.90;;;;;;5034955;28;20461;-82
2021/03/25 01:42:25;;;;;;;262.13;247.37;;;3.30;99.90;;;;;;5051864;28;20451;-82
2021/03/25 01:44:54;;;;;;;268.17;251.97;;;3.30;99.90;;;;;;5038755;28;20453;-84
2021/03/25 01:47:29;;;;;;;253.27;237.90;;;3.30;99.90;;;;;;5053460;28;20505;-82
2021/03/25 01:49:56;;;;;;;242.73;229.43;;;3.20;99.90;;;;;;5054698;28;20455;-82
2021/03/25 01:52:45;;;;;;;242.37;228.17;;;3.20;99.90;;;;;;5037559;28;20480;-82
2021/03/25 01:55:34;;;;;;;258.17;242.00;;;3.10;99.90;;;;;;5034640;28;20874;-82
2021/03/25 01:58:42;;;;;;;257.00;242.30;;;3.10;99.90;;;;;;5034642;28;20456;-82
2021/03/25 02:01:16;;;;;;;268.90;253.13;;;3.10;99.90;;;;;;5004813;28;21090;-82
2021/03/25 02:04:12;;;;;;;259.80;243.20;;;3.20;99.90;;;;;;5048814;28;20533;-82
2021/03/25 02:06:46;;;;;;;266.03;250.00;;;3.20;99.90;;;;;;5044493;28;20479;-82
2021/03/25 02:09:20;;;;;;;269.20;252.13;;;3.20;99.90;;;;;;5034391;28;20547;-83
2021/03/25 02:11:55;;;;;;;292.50;276.03;;;3.40;99.90;;;;;;5044197;28;20448;-83
2021/03/25 02:14:34;;;;;;;296.73;279.60;;;3.40;99.90;;;;;;5048409;28;20841;-82
2021/03/25 02:17:07;;;;;;;292.77;275.70;;;3.50;99.90;;;;;;5033052;28;20567;-83
2021/03/25 02:19:55;;;;;;;285.83;269.53;;;3.40;99.90;;;;;;5040454;28;20529;-82
2021/03/25 02:22:53;;;;;;;296.70;277.67;;;3.30;99.90;;;;;;5053975;28;20475;-82
2021/03/25 02:25:25;;;;;;;311.57;293.30;;;3.40;99.90;;;;;;5032993;28;20479;-82
2021/03/25 02:27:58;;;;;;;297.87;280.23;;;3.40;99.90;;;;;;5040176;28;20501;-82
2021/03/25 02:30:33;;;;;;;312.73;294.10;;;3.50;99.90;;;;;;5033999;28;20820;-82
2021/03/25 02:33:02;;;;;;;333.07;313.03;;;3.40;99.90;;;;;;5040172;28;20466;-82
2021/03/25 02:35:33;;;;;;;310.83;294.53;;;3.50;99.90;;;;;;5054090;28;20814;-82
2021/03/25 02:38:02;;;;;;;278.90;263.17;;;3.50;99.90;;;;;;5052728;28;20524;-83
2021/03/25 02:40:34;;;;;;;272.13;257.37;;;3.50;99.90;;;;;;5053612;28;20463;-82
2021/03/25 02:43:05;;;;;;;277.50;260.97;;;3.30;99.90;;;;;;5046802;28;20455;-83
2021/03/25 02:45:34;;;;;;;287.93;271.43;;;3.30;99.90;;;;;;5033657;28;20526;-81
2021/03/25 02:48:04;;;;;;;305.00;287.23;;;3.30;99.90;;;;;;5038157;28;21031;-82
2021/03/25 02:50:37;;;;;;;297.47;279.50;;;3.30;99.90;;;;;;5043464;28;20544;-82
2021/03/25 02:53:10;;;;;;;301.20;282.70;;;3.30;99.90;;;;;;5038991;28;20455;-83
2021/03/25 02:55:37;;;;;;;314.50;296.60;;;3.30;99.90;;;;;;5053401;28;20451;-82
2021/03/25 02:58:08;;;;;;;334.43;314.93;;;3.20;99.90;;;;;;5044637;28;20456;-83
2021/03/25 03:00:39;;;;;;;338.00;317.23;;;3.30;99.90;;;;;;5033388;28;20488;-82
2021/03/25 03:03:09;;;;;;;356.83;335.63;;;3.30;99.90;;;;;;5041041;28;20569;-82
2021/03/25 03:05:38;;;;;;;331.63;312.23;;;3.40;99.90;;;;;;5053141;28;20479;-82
2021/03/25 03:08:13;;;;;;;329.87;311.30;;;3.40;99.90;;;;;;5044534;28;20492;-83
2021/03/25 03:10:52;;;;;;;332.40;310.60;;;3.30;99.90;;;;;;5033303;28;20459;-83
2021/03/25 03:13:21;;;;;;;340.17;319.57;;;3.50;99.90;;;;;;5039420;28;20474;-83
2021/03/25 03:15:51;;;;;;;327.47;309.50;;;3.50;99.90;;;;;;5034276;28;20456;-83
2021/03/25 03:18:23;;;;;;;330.77;312.57;;;3.50;99.90;;;;;;5033931;28;20468;-83
2021/03/25 03:20:54;;;;;;;321.40;303.20;;;3.40;99.90;;;;;;5049288;28;21008;-83
2021/03/25 03:23:22;;;;;;;325.50;306.20;;;3.50;99.90;;;;;;5048386;28;20480;-83
2021/03/25 03:25:49;;;;;;;323.00;304.83;;;3.40;99.90;;;;;;5032871;28;20499;-82
2021/03/25 03:28:20;;;;;;;325.73;305.77;;;3.40;99.90;;;;;;5041768;28;20452;-83
2021/03/25 03:30:50;;;;;;;311.20;293.13;;;3.50;99.90;;;;;;5041648;28;20532;-83
2021/03/25 03:33:21;;;;;;;318.13;301.23;;;3.40;99.90;;;;;;5051564;28;20954;-82
2021/03/25 03:35:52;;;;;;;309.37;292.23;;;3.50;99.90;;;;;;5034491;28;20452;-83
2021/03/25 03:38:35;;;;;;;;;;;;;;;;;;;;;
2021/03/25 03:41:04;;;;;;;275.13;259.13;;;3.70;99.90;;;;;;5032946;28;20856;-79
2021/03/25 03:43:34;;;;;;;277.97;261.87;;;3.70;99.90;;;;;;5038661;28;20498;-81
2021/03/25 03:46:07;;;;;;;250.07;234.97;;;3.70;99.90;;;;;;5052732;28;20483;-82
2021/03/25 03:48:39;;;;;;;263.83;248.07;;;3.50;99.90;;;;;;5051613;28;20458;-82
2021/03/25 03:51:09;;;;;;;282.33;265.50;;;3.40;99.90;;;;;;5037946;28;20543;-82
2021/03/25 03:53:37;;;;;;;252.70;236.63;;;3.60;99.90;;;;;;5036930;28;20451;-82
2021/03/25 03:56:20;;;;;;;265.83;249.63;;;3.60;99.90;;;;;;5045166;28;20459;-82
2021/03/25 03:58:50;;;;;;;268.13;252.63;;;3.60;99.90;;;;;;5038208;28;20947;-82
2021/03/25 04:01:34;;;;;;;268.23;252.70;;;3.60;99.90;;;;;;5056199;28;20455;-82
2021/03/25 04:04:11;;;;;;;271.33;254.83;;;3.50;99.90;;;;;;5042694;28;20454;-83
2021/03/25 04:06:41;;;;;;;283.33;266.07;;;3.40;99.90;;;;;;5043761;28;21006;-82
2021/03/25 04:09:11;;;;;;;306.40;287.90;;;3.40;99.90;;;;;;5054725;28;20454;-82
2021/03/25 04:11:42;;;;;;;293.17;275.43;;;3.50;99.90;;;;;;5043052;28;20486;-83
2021/03/25 04:14:12;;;;;;;306.83;289.07;;;3.50;99.90;;;;;;5036495;28;20460;-83
2021/03/25 04:16:41;;;;;;;295.40;277.80;;;3.60;99.90;;;;;;5048962;28;20454;-82
2021/03/25 04:19:12;;;;;;;298.97;282.13;;;3.60;99.90;;;;;;5040755;28;20448;-82
2021/03/25 04:21:43;;;;;;;302.87;285.23;;;3.70;99.90;;;;;;5054814;28;20978;-82
2021/03/25 04:24:16;;;;;;;301.00;284.70;;;3.70;99.90;;;;;;5046963;28;20459;-83
2021/03/25 04:26:46;;;;;;;316.67;297.97;;;3.80;99.90;;;;;;5041177;28;20480;-82
2021/03/25 04:29:17;;;;;;;318.53;299.97;;;3.90;99.90;;;;;;5048734;28;20452;-83
2021/03/25 04:31:43;;;;;;;310.63;293.13;;;4.20;99.90;;;;;;5042837;28;20459;-80
2021/03/25 04:34:11;;;;;;;277.77;261.60;;;4.30;99.90;;;;;;5036766;28;20455;-83
2021/03/25 04:36:42;;;;;;;271.60;256.73;;;4.30;99.90;;;;;;5044075;28;20459;-82
2021/03/25 04:39:11;;;;;;;269.10;254.40;;;4.40;99.90;;;;;;5037110;28;20459;-83
2021/03/25 04:41:42;;;;;;;268.23;251.70;;;4.50;99.90;;;;;;5036057;28;20548;-83
2021/03/25 04:44:21;;;;;;;263.93;248.13;;;4.60;99.90;;;;;;5053899;28;20463;-83
2021/03/25 04:46:54;;;;;;;245.43;229.73;;;4.60;99.90;;;;;;5054699;28;20852;-82
2021/03/25 04:49:31;;;;;;;233.77;219.87;;;4.60;99.90;;;;;;5036326;28;20452;-84
2021/03/25 04:52:01;;;;;;;209.97;197.13;;;4.70;99.90;;;;;;5051621;28;20867;-83
2021/03/25 04:54:31;;;;;;;226.63;211.23;;;4.70;99.90;;;;;;5054783;28;20452;-83
2021/03/25 04:57:06;;;;;;;212.17;198.10;;;4.80;99.90;;;;;;5055637;28;20455;-84
2021/03/25 04:59:35;;;;;;;212.40;197.67;;;4.90;99.90;;;;;;5036483;28;20443;-82
2021/03/25 05:02:03;;;;;;;195.17;182.07;;;5.00;99.90;;;;;;5040236;28;20476;-83
2021/03/25 05:04:37;;;;;;;194.27;179.43;;;4.90;99.90;;;;;;5038978;28;20462;-83
2021/03/25 05:07:05;;;;;;;190.20;177.03;;;5.00;99.90;;;;;;5053615;28;20478;-83
2021/03/25 05:09:34;;;;;;;176.20;163.30;;;5.00;99.90;;;;;;5055621;28;20487;-83
2021/03/25 05:12:02;;;;;;;193.10;178.83;;;5.00;99.90;;;;;;5043125;28;20522;-83
2021/03/25 05:14:30;;;;;;;169.90;157.07;;;5.10;99.90;;;;;;5035293;28;20457;-83
2021/03/25 05:17:08;;;;;;;166.70;151.80;;;5.30;99.90;;;;;;5044376;28;20468;-83
2021/03/25 05:19:48;;;;;;;153.37;139.20;;;5.30;99.90;;;;;;5051012;28;20789;-83
2021/03/25 05:22:24;;;;;;;152.50;139.43;;;5.20;99.90;;;;;;5035049;28;20994;-82
2021/03/25 05:24:59;;;;;;;149.43;137.13;;;5.20;99.90;;;;;;5035106;28;20447;-82
2021/03/25 05:27:29;;;;;;;145.73;134.17;;;5.10;99.90;;;;;;5035314;28;20448;-83
2021/03/25 05:29:59;;;;;;;153.13;140.17;;;5.10;99.90;;;;;;5036491;28;20502;-82
2021/03/25 05:32:30;;;;;;;157.97;145.87;;;5.10;99.90;;;;;;5053942;28;20460;-83
2021/03/25 05:35:01;;;;;;;157.80;144.00;;;4.90;99.90;;;;;;5054970;28;20462;-83
2021/03/25 05:37:27;;;;;;;161.90;148.60;;;4.90;99.90;;;;;;5055149;28;21020;-83
2021/03/25 05:39:58;;;;;;;167.03;154.03;;;4.70;99.90;;;;;;5054184;28;20877;-83
2021/03/25 05:42:34;;;;;;;186.63;171.13;;;4.80;99.90;;;;;;5035550;28;20456;-84
2021/03/25 05:45:19;;;;;;;206.60;190.83;;;4.90;99.90;;;;;;5035016;28;20456;-84
2021/03/25 05:48:31;;;;;;;204.73;188.03;;;4.80;99.90;;;;;;5035467;28;20813;-84
2021/03/25 05:51:12;;;;;;;225.47;208.77;;;4.80;99.90;;;;;;5041399;28;20942;-84
2021/03/25 05:53:52;;;;;;;240.10;220.77;;;4.80;99.90;;;;;;5053017;28;20494;-83
2021/03/25 05:56:29;;;;;;;248.07;229.07;;;4.80;99.90;;;;;;5052907;28;20443;-85
2021/03/25 05:59:11;;;;;;;;;;;;;;;;;;;;;
2021/03/25 06:02:00;;;;;;;250.43;229.17;;;5.10;99.90;;;;;;5052604;28;20443;-84
2021/03/25 06:04:33;;;;;;;266.53;242.43;;;5.30;99.90;;;;;;5052359;28;20451;-83
2021/03/25 06:07:42;;;;;;;252.07;230.77;;;5.60;99.90;;;;;;5052457;28;20578;-85
2021/03/25 06:10:22;;;;;;;215.47;192.43;;;5.70;99.90;;;;;;5050190;28;20463;-83
2021/03/25 06:13:04;;;;;;;203.40;182.67;;;5.80;99.90;;;;;;5052165;28;20490;-83
2021/03/25 06:16:11;;;;;;;204.07;181.97;;;5.90;99.90;;;;;;5052610;28;20958;-84
2021/03/25 06:19:22;;;;;;;192.60;157.67;;;6.10;99.90;;;;;;5049891;28;20455;-85
2021/03/25 06:22:22;;;;;;;171.43;136.90;;;6.00;99.90;;;;;;5051256;28;20479;-85
2021/03/25 06:28:23;;;;;;;184.80;164.60;;;6.10;99.90;;;;;;5038380;28;20956;-84
2021/03/25 06:31:31;;;;;;;188.40;163.20;;;6.20;99.90;;;;;;5052033;28;20451;-85
2021/03/25 06:34:32;;;;;;;;;;;;;;;;;;;;;
2021/03/25 06:38:00;;;;;;;174.33;146.83;;;6.30;99.90;;;;;;5052472;28;20500;-84
2021/03/25 06:41:15;;;;;;;157.80;135.97;;;6.40;99.90;;;;;;4991109;28;20456;-84
2021/03/25 06:50:25;;;;;;;123.23;84.90;;;6.90;99.90;;;;;;4840474;29;20466;-84
2021/03/25 06:59:45;;;;;;;;;;;;;;;;;;;;;
2021/03/25 07:02:34;;;;;;;;;;;;;;;;;;;;;
2021/03/25 07:35:57;;;;;;;111.33;65.40;;;9.40;84.30;;;;;;4920263;28;20567;-84
2021/03/25 07:38:59;;;;;;;;;;;;;;;;;;;;;
2021/03/25 07:42:05;;;;;;;103.80;63.40;;;9.60;77.60;;;;;;4971551;28;21162;-83
2021/03/25 07:48:16;;;;;;;102.00;55.27;;;9.50;76.10;;;;;;5009841;28;20903;-83
2021/03/25 07:51:04;;;;;;;97.43;55.17;;;9.60;76.00;;;;;;5049188;28;20973;-83
2021/03/25 07:53:33;;;;;;;108.07;59.90;;;9.70;68.20;;;;;;5051578;28;20466;-84
2021/03/25 07:56:06;;;;;;;103.67;57.03;;;9.50;65.60;;;;;;5049214;28;20486;-84
2021/03/25 07:58:53;;;;;;;95.13;58.87;;;9.60;70.80;;;;;;5052273;28;20459;-84
2021/03/25 08:01:29;;;;;;;106.00;59.40;;;9.70;72.20;;;;;;5051876;28;20851;-84
2021/03/25 08:03:57;;;;;;;104.90;61.97;;;9.70;78.80;;;;;;5050699;28;20471;-84
2021/03/25 08:06:34;;;;;;;111.27;59.10;;;9.70;78.30;;;;;;5048880;28;20484;-85
2021/03/25 08:09:26;;;;;;;110.20;58.80;;;9.70;75.20;;;;;;5051871;28;20460;-83
2021/03/25 08:12:06;;;;;;;107.57;56.00;;;10.00;70.90;;;;;;5051540;28;20458;-83
2021/03/25 08:14:35;;;;;;;98.03;54.37;;;10.10;68.00;;;;;;5051757;28;20447;-84
2021/03/25 08:17:20;;;;;;;103.10;57.60;;;10.20;63.10;;;;;;5050608;28;20475;-83
2021/03/25 08:19:58;;;;;;;104.77;58.97;;;10.30;61.00;;;;;;5506829;23;20437;-83
2021/03/25 08:22:48;;;;;;;103.17;54.10;;;10.60;61.60;;;;;;5070822;28;20627;-83
2021/03/25 08:25:42;;;;;;;109.23;56.13;;;10.60;55.40;;;;;;5069312;28;20558;-83
2021/03/25 08:28:38;;;;;;;103.87;49.10;;;10.80;60.50;;;;;;5071927;28;20464;-83
2021/03/25 08:31:26;;;;;;;74.30;44.70;;;11.10;60.70;;;;;;5071475;28;20459;-82
2021/03/25 08:34:29;;;;;;;77.97;44.13;;;11.60;48.20;;;;;;5069699;28;20836;-83
2021/03/25 08:37:16;;;;;;;79.53;45.13;;;12.00;45.70;;;;;;5350218;22;20885;-82
2021/03/25 08:39:51;;;;;;;87.67;44.30;;;12.60;41.00;;;;;;5093916;28;20456;-83
2021/03/25 08:45:49;;;;;;;;;;;;;;;;;;;;;
2021/03/25 08:48:37;;;;;;;54.73;33.03;;;13.40;27.50;;;;;;5093231;28;20938;-82
2021/03/25 08:51:11;;;;;;;58.70;33.53;;;13.20;24.40;;;;;;5092633;28;20452;-82
2021/03/25 08:53:55;;;;;;;;;;;;;;;;;;;;;
2021/03/25 08:56:35;;;;;;;72.13;41.30;;;13.00;26.60;;;;;;5093350;28;20448;-82
2021/03/25 08:59:06;;;;;;;65.83;39.90;;;12.90;25.90;;;;;;5095954;28;20449;-82
2021/03/25 09:01:43;;;;;;;78.30;43.27;;;12.80;23.80;;;;;;5095784;28;20547;-82
2021/03/25 09:04:11;;;;;;;72.33;41.27;;;12.90;24.40;;;;;;5094829;28;20815;-81
2021/03/25 09:06:42;;;;;;;75.33;40.07;;;12.90;25.30;;;;;;5095768;28;20549;-82
2021/03/25 09:09:36;;;;;;;76.63;46.77;;;13.00;23.40;;;;;;5095707;28;20457;-82
2021/03/25 09:12:14;;;;;;;77.90;43.20;;;13.10;25.60;;;;;;5085325;28;20955;-82
2021/03/25 09:14:49;;;;;;;76.43;43.80;;;13.30;26.30;;;;;;5095270;28;20453;-82
2021/03/25 09:17:22;;;;;;;72.43;40.90;;;13.60;24.70;;;;;;5094404;28;20456;-82
2021/03/25 09:19:51;;;;;;;75.53;46.73;;;14.00;21.00;;;;;;5095496;28;20460;-82
2021/03/25 09:22:39;;;;;;;70.97;42.97;;;14.30;20.00;;;;;;5095400;28;20477;-82
2021/03/25 09:25:32;;;;;;;82.30;44.50;;;14.90;18.10;;;;;;5095319;28;20998;-84
2021/03/25 09:28:04;;;;;;;75.00;46.53;;;15.60;16.60;;;;;;5095463;28;20473;-82
2021/03/25 09:30:36;;;;;;;77.07;45.43;;;15.80;17.30;;;;;;5095275;28;20453;-83
2021/03/25 09:33:44;;;;;;;72.43;43.67;;;15.30;14.80;;;;;;5093682;28;21008;-84
2021/03/25 09:36:52;;;;;;;62.50;38.60;;;15.10;16.20;;;;;;5095146;28;20473;-83
2021/03/25 09:40:02;;;;;;;;;;;;;;;;;;;;;
2021/03/25 09:42:36;;;;;;;70.80;43.97;;;13.70;18.20;;;;;;5005884;28;20479;-85
2021/03/25 09:46:04;;;;;;;;;;;;;;;;;;;;;
2021/03/25 09:49:24;;;;;;;;;;;;;;;;;;;;;
2021/03/25 09:52:25;;;;;;;78.67;44.00;;;13.00;25.50;;;;;;5011981;28;20507;-85
2021/03/25 09:55:33;;;;;;;;;;;;;;;;;;;;;
2021/03/25 09:58:02;;;;;;;79.83;47.80;;;12.80;26.70;;;;;;5087362;28;20842;-83
2021/03/25 10:00:59;;;;;;;69.43;40.80;;;12.60;27.90;;;;;;5094663;28;20448;-83
2021/03/25 10:04:09;;;;;;;67.60;37.03;;;13.00;22.00;;;;;;5093419;28;20450;-83
2021/03/25 10:07:04;;;;;;;65.73;35.80;;;13.60;20.40;;;;;;5094263;28;21045;-81
2021/03/25 10:09:53;;;;;;;73.57;39.57;;;14.00;16.90;;;;;;5081221;28;20456;-81
2021/03/25 10:13:14;;;;;;;64.10;39.07;;;14.20;15.60;;;;;;5094433;28;20454;-81
2021/03/25 10:15:48;;;;;;;67.33;33.93;;;14.20;15.50;;;;;;5094432;28;20450;-81
2021/03/25 10:18:47;;;;;;;57.80;33.70;;;14.70;15.90;;;;;;5093164;28;21017;-82
2021/03/25 10:21:20;;;;;;;68.07;37.50;;;15.10;13.40;;;;;;5094331;28;20483;-82
2021/03/25 10:23:59;;;;;;;62.27;34.90;;;15.30;12.50;;;;;;5094231;28;20450;-83
2021/03/25 10:26:33;;;;;;;62.87;36.17;;;15.40;12.10;;;;;;5094116;28;20485;-82
2021/03/25 10:29:03;;;;;;;61.60;36.10;;;15.80;9.30;;;;;;5094207;28;20453;-83
2021/03/25 10:31:42;;;;;;;65.47;36.13;;;15.70;11.50;;;;;;5094106;28;20450;-83
2021/03/25 10:34:22;;;;;;;67.43;36.00;;;16.00;9.30;;;;;;5092765;28;20971;-83
2021/03/25 10:36:53;;;;;;;65.00;34.53;;;16.10;9.40;;;;;;5093808;28;21012;-83
2021/03/25 10:39:26;;;;;;;66.97;37.93;;;16.00;8.60;;;;;;5093904;28;20449;-83
2021/03/25 10:41:54;;;;;;;85.37;41.17;;;16.20;7.50;;;;;;5093998;28;20458;-82
2021/03/25 10:44:29;;;;;;;66.27;38.17;;;16.30;7.40;;;;;;5094125;28;20518;-83
2021/03/25 10:46:59;;;;;;;66.40;36.37;;;16.40;7.80;;;;;;5092588;28;20542;-83
2021/03/25 10:49:33;;;;;;;60.67;37.57;;;16.50;6.30;;;;;;5093949;28;20453;-82
2021/03/25 10:52:02;;;;;;;60.10;36.17;;;16.60;5.10;;;;;;5093698;28;20449;-82
2021/03/25 10:54:42;;;;;;;71.50;38.77;;;17.10;6.10;;;;;;5093617;28;20450;-86
2021/03/25 10:57:18;;;;;;;72.30;41.60;;;17.50;3.30;;;;;;5093896;28;20562;-83
2021/03/25 10:59:55;;;;;;;65.10;40.13;;;18.10;3.20;;;;;;5093450;28;20445;-83
2021/03/25 11:02:42;;;;;;;48.83;24.80;;;17.30;4.20;;;;;;5092302;28;20448;-85
2021/03/25 11:05:19;;;;;;;52.60;30.10;;;16.80;2.20;;;;;;5093816;28;20441;-87
2021/03/25 11:08:42;;;;;;;;;;;;;;;;;;;;;
2021/03/25 11:11:32;;;;;;;47.20;26.20;;;16.10;8.10;;;;;;4969389;28;20482;-83
2021/03/25 11:14:03;;;;;;;54.47;25.63;;;15.50;9.90;;;;;;5070894;28;20541;-82
2021/03/25 11:16:35;;;;;;;44.53;22.33;;;15.50;6.50;;;;;;5071203;28;20455;-83
2021/03/25 11:22:06;;;;;;;41.97;22.47;;;15.90;7.30;;;;;;5071554;28;20833;-84
2021/03/25 11:24:37;;;;;;;39.60;20.37;;;15.20;8.70;;;;;;5079576;28;20871;-84
2021/03/25 11:27:07;;;;;;;41.37;20.80;;;15.50;6.00;;;;;;5078974;28;20546;-83
2021/03/25 11:29:41;;;;;;;42.33;21.07;;;15.40;4.90;;;;;;5082367;28;20500;-83
2021/03/25 11:32:14;;;;;;;45.47;21.03;;;15.60;6.10;;;;;;5041643;28;20524;-84
2021/03/25 11:34:43;;;;;;;44.07;22.47;;;15.90;4.60;;;;;;5070759;28;20485;-82
2021/03/25 11:37:28;;;;;;;40.30;21.50;;;16.40;1.90;;;;;;5070375;28;20478;-83
2021/03/25 11:40:26;;;;;;;45.10;18.93;;;17.30;3.70;;;;;;5070448;28;20482;-83
2021/03/25 11:46:11;;;;;;;;;;;;;;;;;;;;;
2021/03/25 11:49:06;;;;;;;34.63;18.57;;;17.50;2.70;;;;;;5068980;28;20478;-84
2021/03/25 11:51:56;;;;;;;;;;;;;;;;;;;;;
2021/03/25 11:54:34;;;;;;;42.20;18.70;;;17.30;3.00;;;;;;5069947;28;21094;-85
2021/03/25 11:57:22;;;;;;;40.93;19.17;;;17.40;1.00;;;;;;5070443;28;20500;-83
2021/03/25 12:00:12;;;;;;;40.90;18.80;;;16.80;2.60;;;;;;5070420;28;20451;-85
2021/03/25 12:02:42;;;;;;;37.60;19.20;;;16.60;3.50;;;;;;5069165;28;20454;-83
2021/03/25 12:05:42;;;;;;;39.57;20.23;;;16.50;3.60;;;;;;5070658;28;20446;-84
2021/03/25 12:08:29;;;;;;;44.93;20.90;;;16.70;2.80;;;;;;5068224;28;20478;-83
2021/03/25 12:11:11;;;;;;;31.27;16.43;;;17.20;1.40;;;;;;5072279;28;20454;-86
2021/03/25 12:13:43;;;;;;;36.67;17.63;;;17.80;1.00;;;;;;5074486;28;20457;-84
2021/03/25 12:16:24;;;;;;;35.30;17.37;;;18.60;1.00;;;;;;5073994;28;20458;-83
2021/03/25 12:18:50;;;;;;;35.63;17.20;;;18.70;1.00;;;;;;5073640;28;20446;-85
2021/03/25 12:21:23;;;;;;;41.07;17.00;;;18.50;1.00;;;;;;5074056;28;20469;-83
2021/03/25 12:23:59;;;;;;;36.17;16.43;;;18.60;1.00;;;;;;5073938;28;20487;-83
2021/03/25 12:31:57;;;;;;;32.27;15.20;;;18.70;1.00;;;;;;5155593;22;20502;-82
2021/03/25 12:49:30;;;;;;;36.17;16.90;;;16.90;1.00;;;;;;5054264;28;20325;-84
2021/03/25 12:52:03;;;;;;;36.07;15.67;;;16.50;1.00;;;;;;5074325;28;20473;-84
2021/03/25 12:54:33;;;;;;;34.47;15.90;;;15.80;1.00;;;;;;5074343;28;20525;-83
2021/03/25 12:57:04;;;;;;;34.20;17.53;;;15.60;1.00;;;;;;5073951;28;20489;-83
2021/03/25 12:59:31;;;;;;;38.67;17.87;;;16.00;1.00;;;;;;5074195;28;20516;-84
2021/03/25 13:02:36;;;;;;;;;;;;;;;;;;;;;
2021/03/25 13:05:10;;;;;;;35.83;17.10;;;16.70;1.00;;;;;;5006250;28;20442;-84
2021/03/25 13:07:36;;;;;;;36.20;17.70;;;16.70;1.00;;;;;;5074050;28;20485;-83
2021/03/25 13:10:04;;;;;;;33.20;15.67;;;16.30;1.30;;;;;;5073899;28;20461;-83
2021/03/25 13:12:30;;;;;;;38.63;17.10;;;15.90;1.00;;;;;;5073968;28;20537;-83
2021/03/25 13:14:57;;;;;;;41.17;16.87;;;16.30;1.00;;;;;;5073252;28;20545;-83
2021/03/25 13:17:24;;;;;;;30.90;15.90;;;16.40;1.00;;;;;;5072550;28;20477;-83
2021/03/25 13:19:51;;;;;;;32.63;16.00;;;16.90;1.00;;;;;;5073695;28;20480;-82
2021/03/25 13:22:18;;;;;;;28.43;15.47;;;17.70;1.00;;;;;;5072563;28;20478;-83
2021/03/25 13:25:16;;;;;;;;;;;;;;;;;;;;;
2021/03/25 13:28:09;;;;;;;33.53;14.50;;;18.20;1.00;;;;;;5053567;28;20486;-85
2021/03/25 13:30:36;;;;;;;28.73;12.57;;;18.00;1.00;;;;;;5012197;28;20446;-84
2021/03/25 13:33:04;;;;;;;33.30;15.00;;;18.30;1.00;;;;;;5074076;28;20451;-83
2021/03/25 13:35:34;;;;;;;29.50;12.80;;;18.70;1.00;;;;;;5075404;28;20537;-84
2021/03/25 13:38:02;;;;;;;32.90;13.50;;;19.00;1.00;;;;;;5074821;28;20569;-84
2021/03/25 13:40:33;;;;;;;30.57;14.20;;;18.90;1.00;;;;;;5074957;28;20450;-84
2021/03/25 13:43:03;;;;;;;29.77;14.03;;;18.30;1.00;;;;;;5074795;28;20809;-84
2021/03/25 13:45:44;;;;;;;37.00;15.43;;;18.40;1.00;;;;;;5074950;28;20455;-83
2021/03/25 13:48:16;;;;;;;36.07;14.30;;;18.20;1.00;;;;;;5086968;28;20492;-84
2021/03/25 13:50:47;;;;;;;31.23;13.80;;;18.60;1.00;;;;;;5094753;28;21011;-84
2021/03/25 13:53:19;;;;;;;34.10;15.20;;;18.30;1.00;;;;;;5094826;28;20469;-84
2021/03/25 13:55:59;;;;;;;31.37;14.60;;;18.40;1.00;;;;;;5094919;28;20496;-84
2021/03/25 13:58:29;;;;;;;29.07;14.87;;;18.50;1.00;;;;;;5094893;28;20493;-84
2021/03/25 14:01:02;;;;;;;33.20;14.03;;;19.20;1.00;;;;;;5094582;28;20450;-84
2021/03/25 14:03:41;;;;;;;26.70;12.47;;;18.90;1.00;;;;;;5093259;28;20536;-84
2021/03/25 14:06:10;;;;;;;27.13;12.50;;;18.00;1.00;;;;;;5094589;28;20451;-83
2021/03/25 14:08:44;;;;;;;27.93;12.53;;;17.50;1.00;;;;;;5094613;28;20457;-83
2021/03/25 14:11:11;;;;;;;28.60;11.33;;;16.60;1.00;;;;;;5094529;28;20449;-84
2021/03/25 14:13:43;;;;;;;31.60;14.27;;;16.10;1.00;;;;;;5094502;28;20514;-84
2021/03/25 14:16:16;;;;;;;34.37;14.20;;;15.70;2.50;;;;;;5094423;28;20456;-84
2021/03/25 14:19:26;;;;;;;;;;;;;;;;;;;;;
2021/03/25 14:21:52;;;;;;;33.57;13.93;;;15.50;4.70;;;;;;5087208;28;20901;-83
2021/03/25 14:24:19;;;;;;;28.23;14.27;;;15.90;4.50;;;;;;5094408;28;20454;-83
2021/03/25 14:26:52;;;;;;;27.93;11.93;;;16.50;2.00;;;;;;5094219;28;21018;-83
2021/03/25 14:29:18;;;;;;;30.50;11.83;;;16.50;1.60;;;;;;5094321;28;20457;-83
2021/03/25 14:31:44;;;;;;;27.17;11.13;;;16.50;2.00;;;;;;5094267;28;20493;-83
2021/03/25 14:34:11;;;;;;;26.87;12.53;;;16.10;1.80;;;;;;5092393;28;20453;-83
2021/03/25 14:36:40;;;;;;;28.27;12.80;;;16.00;1.70;;;;;;5094122;28;20791;-83
2021/03/25 14:39:07;;;;;;;27.40;13.73;;;15.70;3.40;;;;;;5093949;28;20460;-83
2021/03/25 14:41:34;;;;;;;25.07;11.00;;;16.00;3.80;;;;;;5093847;28;20472;-83
2021/03/25 14:44:00;;;;;;;28.93;12.03;;;16.10;6.00;;;;;;5093853;28;20453;-84
2021/03/25 14:46:27;;;;;;;23.17;10.43;;;15.90;6.90;;;;;;5092992;28;20456;-83
2021/03/25 14:48:54;;;;;;;24.93;11.77;;;15.70;6.10;;;;;;5091707;28;20791;-84
2021/03/25 14:51:23;;;;;;;24.53;9.97;;;15.40;6.40;;;;;;5093611;28;20461;-83
2021/03/25 14:53:50;;;;;;;23.97;9.13;;;15.20;4.60;;;;;;5093479;28;20534;-83
2021/03/25 14:56:20;;;;;;;23.23;8.37;;;15.20;6.40;;;;;;5094073;28;20532;-83